Hauptseite
METAR-TAF:

METAR-TAF

Flughäfen :

Akulivik, Québec, Kanada

Breite: 60-49N, Länge: 078-09W, Höhe: 20 m

Beobachtung

Neuester Wetterbericht von vor 10 Stunden und 19 Minuten, um 22:00 UTC
Wind 6 kt aus West/Nordwest
Temperatur -13°C
Luftfeuchtigkeit 85%
Luftdruck 1007 hPa
Sichtweite: 9.7 km
Geschlossene Wolkendecke in der Höhe von 900 ft
Schnee leicht

METAR: CYKO 182200Z 30006KT 6SM -SN OVC009 M13/M15 A2974 RMK SC8 LAST OB NEXT / 191300 UTC SLP073

Zeit: 03:19 (08:19 UTC)


TAF: fehlend

Wetterbeobachtungen und Prognosen von mehr als 4000 Flughäfen (METAR und TAF Bericht).

Die verfügbaren Stationen werden durch gelbe und rote Markierungen auf der Karte dargestellt.

Führen Sie die Maus auf sie, um den Namen der Station zu sehen.

Darauf klicken, um die Beobachtung von Wetterbeobachtungen und Prognosen zu sehen.

Um die Karte zu ändern : klicken Sie auf den grünen Tasten mit einem schwarzen Kreuz Zum Vergrößern, auf den grünen Button mit einem Gedankenstrich zu verkleinern, oder auf die grünen Pfeile für benachbarte Karten.


METAR-TAF: